createdAt,value
2023-01-17T00:02:20.806Z,96994.00
2023-01-17T00:04:47.718Z,96990.25
2023-01-17T00:07:17.508Z,96998.63
2023-01-17T00:09:45.844Z,96999.09
2023-01-17T00:12:12.937Z,96998.75
2023-01-17T00:14:39.828Z,96996.00
2023-01-17T00:17:06.670Z,97003.78
2023-01-17T00:19:33.501Z,97006.81
2023-01-17T00:22:00.470Z,97009.41
2023-01-17T00:24:27.240Z,97015.00
2023-01-17T00:26:55.403Z,97018.63
2023-01-17T00:29:22.270Z,97019.88
2023-01-17T00:31:49.190Z,97022.00
2023-01-17T00:34:16.038Z,97027.22
2023-01-17T00:36:42.804Z,97028.28
2023-01-17T00:39:10.117Z,97026.66
2023-01-17T00:41:36.930Z,97033.88
2023-01-17T00:44:05.226Z,97040.47
2023-01-17T00:46:32.250Z,97041.53
2023-01-17T00:48:59.160Z,97051.97
2023-01-17T00:51:28.377Z,97048.16
2023-01-17T00:53:55.132Z,97053.63
2023-01-17T00:56:22.002Z,97048.63
2023-01-17T00:58:49.201Z,97040.94
2023-01-17T01:01:17.786Z,97047.94
2023-01-17T01:03:44.631Z,97052.22
2023-01-17T01:06:12.144Z,97064.19
2023-01-17T01:08:38.974Z,97066.63
2023-01-17T01:11:08.420Z,97068.09
2023-01-17T01:13:35.237Z,97068.47
2023-01-17T01:16:04.132Z,97067.63
2023-01-17T01:18:33.385Z,97063.34
2023-01-17T01:21:03.415Z,97070.53
2023-01-17T01:23:30.178Z,97068.22
2023-01-17T01:25:57.274Z,97067.88
2023-01-17T01:28:24.046Z,97075.56
2023-01-17T01:30:52.162Z,97074.97
2023-01-17T01:33:18.998Z,97080.44
2023-01-17T01:35:49.457Z,97077.91
2023-01-17T01:38:16.819Z,97085.00
2023-01-17T01:40:47.814Z,97085.94
2023-01-17T01:43:18.365Z,97093.69
2023-01-17T01:45:52.774Z,97103.09
2023-01-17T01:48:33.510Z,97110.88
2023-01-17T01:51:08.818Z,97106.34
2023-01-17T01:53:42.343Z,97114.69
2023-01-17T01:56:14.462Z,97124.09
2023-01-17T01:58:50.420Z,97125.13
2023-01-17T02:01:18.198Z,97129.78
2023-01-17T02:03:47.421Z,97127.81
2023-01-17T02:06:31.333Z,97125.50
2023-01-17T02:09:04.208Z,97132.34
2023-01-17T02:11:32.779Z,97126.53
2023-01-17T02:13:59.753Z,97129.31
2023-01-17T02:16:50.130Z,97129.19
2023-01-17T02:20:00.783Z,97131.63
2023-01-17T02:23:15.547Z,97124.56
2023-01-17T02:26:46.647Z,97122.44
2023-01-17T02:29:53.612Z,97119.78
2023-01-17T02:32:36.012Z,97127.09
2023-01-17T02:35:13.582Z,97120.03
2023-01-17T02:37:55.499Z,97113.75
2023-01-17T02:40:30.769Z,97117.25
2023-01-17T02:43:05.721Z,97118.31
2023-01-17T02:45:32.648Z,97126.16
2023-01-17T02:48:01.053Z,97119.66
2023-01-17T02:50:53.199Z,97115.00
2023-01-17T02:53:42.397Z,97111.97
2023-01-17T02:56:26.678Z,97112.34
2023-01-17T02:59:14.331Z,97116.91
2023-01-17T03:02:03.230Z,97109.09
2023-01-17T03:04:40.816Z,97105.28
2023-01-17T03:07:15.975Z,97113.63
2023-01-17T03:09:44.869Z,97097.03
2023-01-17T03:12:12.914Z,97102.25
2023-01-17T03:14:39.849Z,97100.53
2023-01-17T03:17:07.212Z,97104.13
2023-01-17T03:19:35.344Z,97103.31
2023-01-17T03:22:02.077Z,97109.69
2023-01-17T03:24:28.845Z,97120.94
2023-01-17T03:26:55.699Z,97116.53
2023-01-17T03:29:22.712Z,97118.28
2023-01-17T03:31:49.610Z,97124.53
2023-01-17T03:34:16.573Z,97120.13
2023-01-17T03:36:44.779Z,97126.41
2023-01-17T03:39:11.601Z,97116.91
2023-01-17T03:41:38.406Z,97129.09
2023-01-17T03:44:05.543Z,97129.91
2023-01-17T03:46:32.572Z,97125.47
2023-01-17T03:48:59.503Z,97122.00
2023-01-17T03:51:26.375Z,97132.91
2023-01-17T03:53:54.566Z,97137.00
2023-01-17T03:56:21.479Z,97141.94
2023-01-17T03:58:48.413Z,97133.13
2023-01-17T04:01:15.500Z,97139.53
2023-01-17T04:03:42.538Z,97138.16
2023-01-17T04:06:19.434Z,97133.50
2023-01-17T04:09:14.980Z,97125.56
2023-01-17T04:11:41.909Z,97132.88
2023-01-17T04:14:08.879Z,97116.63
2023-01-17T04:16:38.202Z,97126.28
2023-01-17T04:19:05.145Z,97117.34
2023-01-17T04:21:32.144Z,97112.03
2023-01-17T04:23:58.969Z,97116.88
2023-01-17T04:26:27.182Z,97114.66
2023-01-17T04:28:53.934Z,97118.59
2023-01-17T04:31:20.851Z,97122.41
2023-01-17T04:33:47.888Z,97124.72
2023-01-17T04:36:14.704Z,97126.69
2023-01-17T04:38:41.573Z,97131.69
2023-01-17T04:41:08.469Z,97131.25
2023-01-17T04:43:36.954Z,97138.22
2023-01-17T04:46:04.222Z,97135.00
2023-01-17T04:48:31.219Z,97141.16
2023-01-17T04:51:02.764Z,97146.16
2023-01-17T04:53:30.066Z,97145.22
2023-01-17T04:55:58.012Z,97136.72
2023-01-17T04:58:24.999Z,97140.34
2023-01-17T05:00:53.484Z,97133.72
2023-01-17T05:03:23.001Z,97141.59
2023-01-17T05:05:49.878Z,97139.88
2023-01-17T05:08:17.008Z,97134.53
2023-01-17T05:10:46.648Z,97130.94
2023-01-17T05:13:14.792Z,97131.94
2023-01-17T05:15:42.029Z,97130.56
2023-01-17T05:18:13.784Z,97130.97
2023-01-17T05:20:40.875Z,97142.66
2023-01-17T05:23:08.549Z,97135.41
2023-01-17T05:25:35.697Z,97135.31
2023-01-17T05:28:03.342Z,97143.69
2023-01-17T05:30:32.606Z,97148.22
2023-01-17T05:32:59.748Z,97140.56
2023-01-17T05:35:30.987Z,97140.78
2023-01-17T05:38:01.551Z,97135.69
2023-01-17T05:40:32.132Z,97135.59
2023-01-17T05:43:01.273Z,97130.44
2023-01-17T05:45:31.091Z,97129.47
2023-01-17T05:47:58.540Z,97134.66
2023-01-17T05:50:29.998Z,97145.44
2023-01-17T05:53:15.537Z,97144.66
2023-01-17T05:55:43.294Z,97138.56
2023-01-17T05:58:16.571Z,97130.38
2023-01-17T06:00:44.501Z,97131.75
2023-01-17T06:03:12.001Z,97126.88
2023-01-17T06:05:41.415Z,97126.28
2023-01-17T06:13:04.356Z,97109.72
2023-01-17T06:15:56.316Z,97110.03
2023-01-17T06:18:23.197Z,97108.31
2023-01-17T06:21:56.406Z,97100.09
2023-01-17T06:24:25.918Z,97104.56
2023-01-17T06:26:56.035Z,97101.81
2023-01-17T06:29:23.419Z,97095.84
2023-01-17T06:31:50.681Z,97099.38
2023-01-17T06:34:17.991Z,97097.78
2023-01-17T06:36:44.977Z,97099.16
2023-01-17T06:39:14.834Z,97101.28
2023-01-17T06:41:43.299Z,97096.34
2023-01-17T06:44:10.593Z,97081.19
2023-01-17T06:46:37.916Z,97089.41
2023-01-17T06:49:05.836Z,97085.88
2023-01-17T06:51:32.994Z,97094.72
2023-01-17T06:54:00.125Z,97096.84
2023-01-17T06:56:27.018Z,97091.56
2023-01-17T06:58:57.997Z,97092.53
2023-01-17T07:01:25.414Z,97099.50
2023-01-17T07:03:52.284Z,97089.25
2023-01-17T07:06:20.102Z,97091.22
2023-01-17T07:08:46.989Z,97092.75
2023-01-17T07:11:14.202Z,97092.94
2023-01-17T07:13:41.408Z,97092.53
2023-01-17T07:16:09.955Z,97088.34
2023-01-17T07:18:36.928Z,97083.38
2023-01-17T07:21:04.085Z,97093.56
2023-01-17T07:23:31.064Z,97091.84
2023-01-17T07:26:00.497Z,97089.16
2023-01-17T07:28:28.557Z,97089.78
2023-01-17T07:30:57.456Z,97085.19
2023-01-17T07:33:25.614Z,97087.19
2023-01-17T07:35:52.439Z,97084.97
2023-01-17T07:38:20.292Z,97076.56
2023-01-17T07:40:47.147Z,97074.59
2023-01-17T07:43:14.029Z,97080.22
2023-01-17T07:45:43.092Z,97072.22
2023-01-17T07:48:11.984Z,97084.09
2023-01-17T07:50:40.329Z,97080.03
2023-01-17T07:53:07.330Z,97076.31
2023-01-17T07:55:34.299Z,97075.75
2023-01-17T07:58:02.996Z,97063.81
2023-01-17T08:00:29.980Z,97061.25
2023-01-17T08:02:57.167Z,97054.47
2023-01-17T08:05:24.508Z,97059.69
2023-01-17T08:07:53.848Z,97061.16
2023-01-17T08:10:21.186Z,97055.72
2023-01-17T08:12:50.102Z,97053.53
2023-01-17T08:15:18.373Z,97054.06
2023-01-17T08:17:47.100Z,97052.88
2023-01-17T08:20:14.593Z,97058.66
2023-01-17T08:22:42.117Z,97061.03
2023-01-17T08:25:11.511Z,97068.41
2023-01-17T08:27:39.574Z,97061.66
2023-01-17T08:30:08.565Z,97048.53
2023-01-17T08:32:35.525Z,97042.66
2023-01-17T08:35:03.057Z,97034.63
2023-01-17T08:37:29.859Z,97026.84
2023-01-17T08:39:56.675Z,97031.63
2023-01-17T08:42:25.254Z,97034.84
2023-01-17T08:44:52.155Z,97040.66
2023-01-17T08:47:19.006Z,97044.28
2023-01-17T08:49:45.778Z,97050.63
2023-01-17T08:52:12.912Z,97055.94
2023-01-17T08:54:39.885Z,97050.25
2023-01-17T08:57:06.735Z,97050.06
2023-01-17T08:59:34.906Z,97050.19
2023-01-17T09:02:01.980Z,97049.19
2023-01-17T09:04:29.238Z,97050.25
2023-01-17T09:06:56.121Z,97053.41
2023-01-17T09:09:23.148Z,97051.19
2023-01-17T09:11:49.917Z,97047.38
2023-01-17T09:14:16.691Z,97045.19
2023-01-17T09:16:44.876Z,97048.91
2023-01-17T09:19:11.752Z,97049.72
2023-01-17T09:21:38.674Z,97052.28
2023-01-17T09:24:06.823Z,97051.75
2023-01-17T09:26:33.867Z,97044.22
2023-01-17T09:29:00.949Z,97052.88
2023-01-17T09:31:28.616Z,97049.44
2023-01-17T09:33:58.550Z,97042.59
2023-01-17T09:36:27.318Z,97044.94
2023-01-17T09:38:56.866Z,97052.13
2023-01-17T09:41:28.307Z,97041.63
2023-01-17T09:44:04.840Z,97048.69
2023-01-17T09:46:38.884Z,97048.94
2023-01-17T09:49:15.823Z,97045.41
2023-01-17T09:51:42.915Z,97043.41
2023-01-17T09:54:22.288Z,97039.59
2023-01-17T09:56:58.509Z,97033.31
2023-01-17T09:59:40.238Z,97026.69
2023-01-17T10:02:34.585Z,97034.75
2023-01-17T10:05:28.839Z,97026.19
2023-01-17T10:08:14.695Z,97025.09
2023-01-17T10:10:46.782Z,97023.69
2023-01-17T10:13:39.397Z,97014.78
2023-01-17T10:16:29.366Z,97005.16
2023-01-17T10:19:18.533Z,97018.16
2023-01-17T10:22:01.795Z,97011.22
2023-01-17T10:25:02.597Z,97008.81
2023-01-17T10:27:37.486Z,96994.22
2023-01-17T10:30:23.556Z,96987.38
2023-01-17T10:32:50.846Z,96975.97
2023-01-17T10:35:26.256Z,96968.44
2023-01-17T10:37:58.294Z,96964.72
2023-01-17T10:40:37.509Z,96964.47
2023-01-17T10:43:19.402Z,96956.72
2023-01-17T10:45:53.872Z,96951.22
2023-01-17T10:48:36.532Z,96951.06
2023-01-17T10:51:21.352Z,96949.25
2023-01-17T10:54:09.924Z,96948.13
2023-01-17T10:56:40.694Z,96945.31
2023-01-17T10:59:23.700Z,96947.25
2023-01-17T11:01:51.991Z,96941.13
2023-01-17T11:07:37.685Z,96930.38
2023-01-17T11:10:37.790Z,96921.53
2023-01-17T11:13:17.490Z,96931.56
2023-01-17T11:15:50.573Z,96927.34
2023-01-17T11:18:20.488Z,96924.16
2023-01-17T11:20:49.100Z,96924.47
2023-01-17T11:23:20.085Z,96930.41
2023-01-17T11:25:56.052Z,96922.44
2023-01-17T11:28:27.404Z,96924.72
2023-01-17T11:30:57.520Z,96908.06
2023-01-17T11:33:38.628Z,96898.88
2023-01-17T11:36:06.096Z,96899.63
2023-01-17T11:38:33.100Z,96896.47
2023-01-17T11:41:10.038Z,96897.22
2023-01-17T11:43:51.684Z,96902.75
2023-01-17T11:46:20.616Z,96888.03
2023-01-17T11:48:51.489Z,96895.22
2023-01-17T11:51:25.768Z,96896.47
2023-01-17T11:54:06.227Z,96889.97
2023-01-17T11:56:37.704Z,96880.28
2023-01-17T11:59:29.348Z,96884.03
2023-01-17T12:02:38.532Z,96865.88
2023-01-17T12:05:27.887Z,96857.13
2023-01-17T12:08:12.922Z,96856.59
2023-01-17T12:10:54.168Z,96856.84
2023-01-17T12:13:41.484Z,96846.38
2023-01-17T12:16:26.815Z,96839.81
2023-01-17T12:19:12.624Z,96835.59
2023-01-17T12:21:59.845Z,96827.72
2023-01-17T12:25:10.593Z,96829.34
2023-01-17T12:27:59.477Z,96835.81
2023-01-17T12:30:52.916Z,96818.47
2023-01-17T12:33:33.646Z,96814.06
2023-01-17T12:36:11.631Z,96808.16
2023-01-17T12:38:40.131Z,96813.00
2023-01-17T12:41:16.500Z,96803.88
2023-01-17T12:43:44.762Z,96803.81
2023-01-17T12:46:20.667Z,96785.34
2023-01-17T12:48:55.992Z,96786.00
2023-01-17T12:51:30.566Z,96793.25
2023-01-17T12:54:07.045Z,96796.06
2023-01-17T12:56:42.477Z,96795.72
2023-01-17T12:59:19.329Z,96789.25
2023-01-17T13:01:55.456Z,96780.63
2023-01-17T13:04:31.933Z,96781.16
2023-01-17T13:07:20.382Z,96778.19
2023-01-17T13:09:55.341Z,96767.78
2023-01-17T13:12:37.336Z,96768.13
2023-01-17T13:15:17.002Z,96767.41
2023-01-17T13:17:51.792Z,96762.78
2023-01-17T13:20:28.702Z,96751.13
2023-01-17T13:23:12.038Z,96756.69
2023-01-17T13:25:47.447Z,96748.84
2023-01-17T13:28:28.430Z,96753.75
2023-01-17T13:31:21.291Z,96752.63
2023-01-17T13:34:31.170Z,96751.22
2023-01-17T13:37:36.268Z,96755.47
2023-01-17T13:40:37.540Z,96746.88
2023-01-17T13:43:13.731Z,96750.31
2023-01-17T13:45:40.830Z,96745.97
2023-01-17T13:48:27.863Z,96737.63
2023-01-17T13:50:58.641Z,96744.41
2023-01-17T13:53:58.681Z,96746.31
2023-01-17T13:56:35.050Z,96741.72
2023-01-17T13:59:28.636Z,96733.75
2023-01-17T14:01:55.885Z,96729.25
2023-01-17T14:04:25.001Z,96746.63
2023-01-17T14:06:58.952Z,96745.03
2023-01-17T14:09:40.498Z,96743.59
2023-01-17T14:12:31.015Z,96747.59
2023-01-17T14:15:01.237Z,96758.22
2023-01-17T14:17:58.026Z,96758.56
2023-01-17T14:21:19.800Z,96763.91
2023-01-17T14:24:06.518Z,96751.19
2023-01-17T14:26:46.115Z,96748.69
2023-01-17T14:29:53.561Z,96757.22
2023-01-17T14:32:26.344Z,96755.97
2023-01-17T14:34:54.409Z,96756.13
2023-01-17T14:37:37.577Z,96757.31
2023-01-17T14:40:18.732Z,96752.59
2023-01-17T14:42:48.395Z,96758.31
2023-01-17T14:45:25.998Z,96762.66
2023-01-17T14:47:53.283Z,96758.75
2023-01-17T14:50:25.525Z,96759.72
2023-01-17T14:53:15.631Z,96755.63
2023-01-17T14:55:54.384Z,96754.88
2023-01-17T14:58:24.444Z,96759.38
2023-01-17T15:00:58.111Z,96754.50
2023-01-17T15:03:25.647Z,96760.22
2023-01-17T15:05:56.302Z,96761.22
2023-01-17T15:08:35.361Z,96758.66
2023-01-17T15:11:07.950Z,96767.84
2023-01-17T15:13:45.125Z,96749.53
2023-01-17T15:16:24.706Z,96751.28
2023-01-17T15:18:54.682Z,96753.69
2023-01-17T15:21:26.166Z,96749.09
2023-01-17T15:23:56.860Z,96748.16
2023-01-17T15:26:29.881Z,96753.19
2023-01-17T15:29:04.815Z,96750.56
2023-01-17T15:31:45.034Z,96743.09
2023-01-17T15:34:24.628Z,96742.81
2023-01-17T15:36:52.889Z,96740.47
2023-01-17T15:39:24.857Z,96737.97
2023-01-17T15:41:55.988Z,96742.13
2023-01-17T15:44:46.893Z,96747.34
2023-01-17T15:47:29.167Z,96746.06
2023-01-17T15:49:57.843Z,96736.69
2023-01-17T15:52:24.990Z,96742.75
2023-01-17T15:54:54.407Z,96740.03
2023-01-17T15:57:28.744Z,96753.94
2023-01-17T16:00:02.321Z,96757.31
2023-01-17T16:02:37.431Z,96754.94
2023-01-17T16:05:36.932Z,96758.50
2023-01-17T16:08:32.105Z,96741.63
2023-01-17T16:11:04.233Z,96755.06
2023-01-17T16:13:35.546Z,96767.75
2023-01-17T16:16:22.583Z,96756.25
2023-01-17T16:18:59.151Z,96757.13
2023-01-17T16:21:29.744Z,96751.06
2023-01-17T16:23:58.178Z,96751.75
2023-01-17T16:26:25.067Z,96760.78
2023-01-17T16:28:53.682Z,96759.78
2023-01-17T16:31:23.718Z,96759.66
2023-01-17T16:33:52.136Z,96756.06
2023-01-17T16:36:20.081Z,96761.41
2023-01-17T16:38:50.887Z,96763.34
2023-01-17T16:41:18.211Z,96761.53
2023-01-17T16:43:45.199Z,96770.34
2023-01-17T16:46:13.744Z,96768.47
2023-01-17T16:48:41.223Z,96766.13
2023-01-17T16:51:08.786Z,96773.19
2023-01-17T16:53:36.390Z,96770.16
2023-01-17T16:56:11.859Z,96768.00
2023-01-17T16:58:39.211Z,96765.88
2023-01-17T17:01:10.476Z,96759.72
2023-01-17T17:03:38.697Z,96759.66
2023-01-17T17:06:06.403Z,96775.84
2023-01-17T17:08:34.751Z,96767.50
2023-01-17T17:11:10.445Z,96764.69
2023-01-17T17:13:37.257Z,96761.16
2023-01-17T17:16:11.114Z,96767.03
2023-01-17T17:18:39.385Z,96775.16
2023-01-17T17:21:06.473Z,96777.19
2023-01-17T17:23:33.371Z,96772.59
2023-01-17T17:26:00.216Z,96780.81
2023-01-17T17:28:27.316Z,96771.88
2023-01-17T17:31:06.951Z,96772.91
2023-01-17T17:33:34.070Z,96784.84
2023-01-17T17:36:08.488Z,96780.56
2023-01-17T17:38:36.878Z,96786.84
2023-01-17T17:41:08.591Z,96785.03
2023-01-17T17:43:39.835Z,96788.16
2023-01-17T17:46:08.766Z,96787.75
2023-01-17T17:48:36.624Z,96793.09
2023-01-17T17:51:04.697Z,96793.75
2023-01-17T17:53:33.581Z,96795.53
2023-01-17T17:56:05.844Z,96789.41
2023-01-17T17:58:34.525Z,96800.59
2023-01-17T18:01:06.311Z,96795.53
2023-01-17T18:03:33.866Z,96804.13
2023-01-17T18:06:03.311Z,96798.84
2023-01-17T18:08:30.982Z,96800.25
2023-01-17T18:11:01.419Z,96807.59
2023-01-17T18:13:29.515Z,96804.66
2023-01-17T18:16:05.392Z,96817.06
2023-01-17T18:18:33.312Z,96816.66
2023-01-17T18:21:12.414Z,96817.53
2023-01-17T18:23:42.937Z,96814.69
2023-01-17T18:26:18.960Z,96820.91
2023-01-17T18:28:47.149Z,96816.91
2023-01-17T18:31:14.809Z,96821.78
2023-01-17T18:33:48.454Z,96829.31
2023-01-17T18:36:15.486Z,96837.66
2023-01-17T18:38:45.309Z,96841.84
2023-01-17T18:41:17.055Z,96838.59
2023-01-17T18:43:44.468Z,96836.78
2023-01-17T18:46:13.448Z,96838.91
2023-01-17T18:48:41.369Z,96837.28
2023-01-17T18:51:13.184Z,96845.84
2023-01-17T18:53:45.220Z,96856.84
2023-01-17T18:56:17.975Z,96848.25
2023-01-17T18:58:48.196Z,96857.97
2023-01-17T19:01:20.541Z,96860.84
2023-01-17T19:03:50.946Z,96864.25
2023-01-17T19:06:46.322Z,96861.09
2023-01-17T19:09:17.007Z,96873.88
2023-01-17T19:11:46.589Z,96865.78
2023-01-17T19:14:14.183Z,96870.28
2023-01-17T19:16:42.664Z,96876.53
2023-01-17T19:19:14.631Z,96877.13
2023-01-17T19:21:42.674Z,96881.88
2023-01-17T19:24:12.077Z,96879.56
2023-01-17T19:26:39.954Z,96891.25
2023-01-17T19:29:08.579Z,96894.59
2023-01-17T19:31:39.947Z,96893.78
2023-01-17T19:34:07.178Z,96905.34
2023-01-17T19:36:38.159Z,96895.38
2023-01-17T19:39:08.319Z,96905.31
2023-01-17T19:41:37.834Z,96898.94
2023-01-17T19:44:09.029Z,96903.09
2023-01-17T19:46:37.408Z,96905.28
2023-01-17T19:49:06.678Z,96905.28
2023-01-17T19:51:33.987Z,96902.50
2023-01-17T19:54:01.384Z,96908.16
2023-01-17T19:56:30.260Z,96904.91
2023-01-17T19:58:58.096Z,96901.09
2023-01-17T20:01:31.039Z,96904.22
2023-01-17T20:03:59.502Z,96902.06
2023-01-17T20:06:31.405Z,96898.88
2023-01-17T20:08:59.127Z,96904.69
2023-01-17T20:11:29.171Z,96903.19
2023-01-17T20:13:59.091Z,96899.50
2023-01-17T20:16:31.714Z,96911.31
2023-01-17T20:19:32.655Z,96903.53
2023-01-17T20:22:04.951Z,96905.50
2023-01-17T20:24:34.905Z,96904.47
2023-01-17T20:27:01.960Z,96909.56
2023-01-17T20:29:28.923Z,96907.25
2023-01-17T20:31:57.135Z,96914.09
2023-01-17T20:34:24.248Z,96914.22
2023-01-17T20:36:57.717Z,96908.66
2023-01-17T20:39:24.646Z,96905.41
2023-01-17T20:41:52.166Z,96903.66
2023-01-17T20:44:19.095Z,96902.72
2023-01-17T20:46:47.137Z,96901.81
2023-01-17T20:49:18.369Z,96897.63
2023-01-17T20:51:46.588Z,96901.09
2023-01-17T20:54:16.014Z,96896.00
2023-01-17T20:56:43.755Z,96905.63
2023-01-17T20:59:14.049Z,96898.66
2023-01-17T21:01:41.325Z,96895.19
2023-01-17T21:04:08.203Z,96901.81
2023-01-17T21:06:39.963Z,96892.16
2023-01-17T21:09:10.548Z,96900.31
2023-01-17T21:12:29.689Z,96898.34
2023-01-17T21:14:56.554Z,96897.28
2023-01-17T21:17:23.642Z,96898.78
2023-01-17T21:19:50.504Z,96896.00
2023-01-17T21:22:18.969Z,96889.53
2023-01-17T21:24:45.850Z,96900.75
2023-01-17T21:27:13.236Z,96895.19
2023-01-17T21:29:40.000Z,96899.34
2023-01-17T21:32:07.056Z,96896.81
2023-01-17T21:34:34.464Z,96896.59
2023-01-17T21:37:01.624Z,96898.91
2023-01-17T21:39:30.226Z,96903.78
2023-01-17T21:41:57.099Z,96902.59
2023-01-17T21:44:24.042Z,96895.66
2023-01-17T21:46:51.002Z,96892.41
2023-01-17T21:49:18.007Z,96892.41
2023-01-17T21:51:45.232Z,96891.72
2023-01-17T21:54:12.748Z,96898.09
2023-01-17T21:56:40.891Z,96900.97
2023-01-17T21:59:07.922Z,96901.44
2023-01-17T22:01:34.877Z,96897.25
2023-01-17T22:04:03.591Z,96898.88
2023-01-17T22:06:33.289Z,96905.03
2023-01-17T22:09:00.405Z,96892.63
2023-01-17T22:11:28.062Z,96900.00
2023-01-17T22:13:58.877Z,96906.03
2023-01-17T22:16:26.147Z,96899.47
2023-01-17T22:18:53.466Z,96895.97
2023-01-17T22:21:24.302Z,96902.91
2023-01-17T22:23:54.375Z,96905.56
2023-01-17T22:26:24.357Z,96903.97
2023-01-17T22:28:51.319Z,96904.78
2023-01-17T22:31:22.831Z,96895.97
2023-01-17T22:33:54.489Z,96896.19
2023-01-17T22:36:22.980Z,96899.22
2023-01-17T22:38:50.475Z,96906.41
2023-01-17T22:41:20.568Z,96903.72
2023-01-17T22:43:50.734Z,96895.84
2023-01-17T22:46:22.857Z,96901.38
2023-01-17T22:48:50.234Z,96896.06
2023-01-17T22:51:20.072Z,96895.59
2023-01-17T22:53:52.936Z,96889.81
2023-01-17T22:56:44.418Z,96890.78
2023-01-17T22:59:31.782Z,96888.81
2023-01-17T23:02:41.450Z,96881.13
2023-01-17T23:05:29.548Z,96885.63
2023-01-17T23:08:11.732Z,96887.16
2023-01-17T23:11:00.758Z,96885.75
2023-01-17T23:13:30.791Z,96892.94
2023-01-17T23:15:57.843Z,96886.06
2023-01-17T23:18:26.319Z,96890.34
2023-01-17T23:20:53.292Z,96882.13
2023-01-17T23:23:20.167Z,96876.59
2023-01-17T23:25:47.163Z,96876.34
2023-01-17T23:28:14.409Z,96878.28
2023-01-17T23:30:42.072Z,96877.94
2023-01-17T23:33:13.073Z,96880.81
2023-01-17T23:35:44.180Z,96879.00
2023-01-17T23:38:13.587Z,96874.16
2023-01-17T23:40:41.745Z,96874.16
2023-01-17T23:43:09.904Z,96876.25
2023-01-17T23:46:29.881Z,96872.31
2023-01-17T23:48:56.788Z,96866.16
2023-01-17T23:51:25.213Z,96875.56
2023-01-17T23:53:52.061Z,96874.06
2023-01-17T23:56:22.546Z,96873.84
2023-01-17T23:58:49.899Z,96867.22
